EGJB

Guernsey Airport

Saint Peter Port, Guernsey
TAF EGJB 220204Z 2203/2212 26010KT 9999 SCT030 TEMPO 2207/2212 7000 RA BKN015 PROB30 TEMPO 2209/2212 3000 +RA BKN006 BECMG 2210/2212 16020KT
Issued Valid From Valid To
Sep-22 @ 02:04 UTC
(2 hours ago)
Sep-22 @ 03:00 UTC
(41 minutes ago)
Sep-22 @ 12:00 UTC
(in 8 hours)
to
to
to
to
TAF EGJB 220204Z 2203/2212 26010KT 9999 SCT030 TEMPO 2207/2212 7000 RA BKN015 PROB30 TEMPO 2209/2212 3000 +RA BKN006 BECMG 2210/2212 16020KT
Issued Sep-22 @ 02:04 UTC
(2 hours ago)
Valid From Sep-22 @ 03:00 UTC
(41 minutes ago)
Valid To Sep-22 @ 12:00 UTC
(in 8 hours)
-
-
-
-